sensor_id;sensor_type;location;lat;lon;timestamp;temperature;humidity
21244;DHT22;10780;50.942;4.028;2022-09-17T00:02:00;11.10;99.90
21244;DHT22;10780;50.942;4.028;2022-09-17T00:04:27;11.20;99.90
21244;DHT22;10780;50.942;4.028;2022-09-17T00:06:52;11.20;99.90
21244;DHT22;10780;50.942;4.028;2022-09-17T00:09:18;11.30;99.90
21244;DHT22;10780;50.942;4.028;2022-09-17T00:11:44;11.40;99.90
21244;DHT22;10780;50.942;4.028;2022-09-17T00:14:15;11.40;99.90
21244;DHT22;10780;50.942;4.028;2022-09-17T00:16:44;11.50;99.90
21244;DHT22;10780;50.942;4.028;2022-09-17T00:19:16;11.40;99.90
21244;DHT22;10780;50.942;4.028;2022-09-17T00:21:43;11.40;99.90
21244;DHT22;10780;50.942;4.028;2022-09-17T00:24:10;11.40;99.90
21244;DHT22;10780;50.942;4.028;2022-09-17T00:26:36;11.40;99.90
21244;DHT22;10780;50.942;4.028;2022-09-17T00:29:03;11.50;99.90
21244;DHT22;10780;50.942;4.028;2022-09-17T00:31:29;11.40;99.90
21244;DHT22;10780;50.942;4.028;2022-09-17T00:33:55;11.40;99.90
21244;DHT22;10780;50.942;4.028;2022-09-17T00:36:21;11.30;99.90
21244;DHT22;10780;50.942;4.028;2022-09-17T00:38:49;11.30;99.90
21244;DHT22;10780;50.942;4.028;2022-09-17T00:41:15;11.30;99.90
21244;DHT22;10780;50.942;4.028;2022-09-17T00:43:43;11.30;99.90
21244;DHT22;10780;50.942;4.028;2022-09-17T00:48:42;11.40;99.90
21244;DHT22;10780;50.942;4.028;2022-09-17T00:51:10;11.40;99.90
21244;DHT22;10780;50.942;4.028;2022-09-17T00:53:36;11.40;99.90
21244;DHT22;10780;50.942;4.028;2022-09-17T00:56:33;11.40;99.90
21244;DHT22;10780;50.942;4.028;2022-09-17T00:58:56;11.40;99.90
21244;DHT22;10780;50.942;4.028;2022-09-17T01:01:22;11.40;99.90
21244;DHT22;10780;50.942;4.028;2022-09-17T01:03:49;11.40;99.90
21244;DHT22;10780;50.942;4.028;2022-09-17T01:06:36;11.40;99.90
21244;DHT22;10780;50.942;4.028;2022-09-17T01:14:58;11.20;99.90
21244;DHT22;10780;50.942;4.028;2022-09-17T01:17:44;11.20;99.90
21244;DHT22;10780;50.942;4.028;2022-09-17T01:31:28;11.30;99.90
21244;DHT22;10780;50.942;4.028;2022-09-17T01:37:11;11.30;99.90
21244;DHT22;10780;50.942;4.028;2022-09-17T01:39:50;11.30;99.90
21244;DHT22;10780;50.942;4.028;2022-09-17T01:42:24;11.30;99.90
21244;DHT22;10780;50.942;4.028;2022-09-17T01:45:09;11.30;99.90
21244;DHT22;10780;50.942;4.028;2022-09-17T01:47:41;11.40;99.90
21244;DHT22;10780;50.942;4.028;2022-09-17T01:50:12;11.30;99.90
21244;DHT22;10780;50.942;4.028;2022-09-17T01:52:43;11.30;99.90
21244;DHT22;10780;50.942;4.028;2022-09-17T01:55:13;11.40;99.90
21244;DHT22;10780;50.942;4.028;2022-09-17T01:57:46;11.40;99.90
21244;DHT22;10780;50.942;4.028;2022-09-17T02:00:13;11.40;99.90
21244;DHT22;10780;50.942;4.028;2022-09-17T02:02:45;11.50;99.90
21244;DHT22;10780;50.942;4.028;2022-09-17T02:05:26;11.50;99.90
21244;DHT22;10780;50.942;4.028;2022-09-17T02:08:09;11.60;99.90
21244;DHT22;10780;50.942;4.028;2022-09-17T02:10:39;11.60;99.90
21244;DHT22;10780;50.942;4.028;2022-09-17T02:13:13;11.50;99.90
21244;DHT22;10780;50.942;4.028;2022-09-17T02:15:44;11.50;99.90
21244;DHT22;10780;50.942;4.028;2022-09-17T02:18:35;11.50;99.90
21244;DHT22;10780;50.942;4.028;2022-09-17T02:21:16;11.30;99.90
21244;DHT22;10780;50.942;4.028;2022-09-17T02:23:51;11.20;99.90
21244;DHT22;10780;50.942;4.028;2022-09-17T02:26:22;11.10;99.90
21244;DHT22;10780;50.942;4.028;2022-09-17T02:28:54;11.10;99.90
21244;DHT22;10780;50.942;4.028;2022-09-17T02:31:21;11.10;99.90
21244;DHT22;10780;50.942;4.028;2022-09-17T02:33:49;11.00;99.90
21244;DHT22;10780;50.942;4.028;2022-09-17T02:36:17;11.00;99.90
21244;DHT22;10780;50.942;4.028;2022-09-17T02:38:44;11.00;99.90
21244;DHT22;10780;50.942;4.028;2022-09-17T02:41:18;10.90;99.90
21244;DHT22;10780;50.942;4.028;2022-09-17T02:52:09;10.80;99.90
21244;DHT22;10780;50.942;4.028;2022-09-17T02:54:50;10.90;99.90
21244;DHT22;10780;50.942;4.028;2022-09-17T03:00:11;10.70;99.90
21244;DHT22;10780;50.942;4.028;2022-09-17T03:05:08;10.60;99.90
21244;DHT22;10780;50.942;4.028;2022-09-17T03:07:34;10.60;99.90
21244;DHT22;10780;50.942;4.028;2022-09-17T03:09:59;10.50;99.90
21244;DHT22;10780;50.942;4.028;2022-09-17T03:12:25;10.60;99.90
21244;DHT22;10780;50.942;4.028;2022-09-17T03:14:51;10.50;99.90
21244;DHT22;10780;50.942;4.028;2022-09-17T03:17:17;10.50;99.90
21244;DHT22;10780;50.942;4.028;2022-09-17T03:19:42;10.40;99.90
21244;DHT22;10780;50.942;4.028;2022-09-17T03:22:08;10.40;99.90
21244;DHT22;10780;50.942;4.028;2022-09-17T03:24:34;10.40;99.90
21244;DHT22;10780;50.942;4.028;2022-09-17T03:27:00;10.40;99.90
21244;DHT22;10780;50.942;4.028;2022-09-17T03:29:25;10.30;99.90
21244;DHT22;10780;50.942;4.028;2022-09-17T03:31:51;10.30;99.90
21244;DHT22;10780;50.942;4.028;2022-09-17T03:34:16;10.30;99.90
21244;DHT22;10780;50.942;4.028;2022-09-17T03:36:42;10.40;99.90
21244;DHT22;10780;50.942;4.028;2022-09-17T03:39:08;10.40;99.90
21244;DHT22;10780;50.942;4.028;2022-09-17T03:41:34;10.40;99.90
21244;DHT22;10780;50.942;4.028;2022-09-17T03:43:59;10.40;99.90
21244;DHT22;10780;50.942;4.028;2022-09-17T03:46:25;10.40;99.90
21244;DHT22;10780;50.942;4.028;2022-09-17T03:48:50;10.40;99.90
21244;DHT22;10780;50.942;4.028;2022-09-17T03:51:16;10.40;99.90
21244;DHT22;10780;50.942;4.028;2022-09-17T03:53:42;10.40;99.90
21244;DHT22;10780;50.942;4.028;2022-09-17T03:56:07;10.50;99.90
21244;DHT22;10780;50.942;4.028;2022-09-17T03:58:33;10.60;99.90
21244;DHT22;10780;50.942;4.028;2022-09-17T04:00:59;10.70;99.90
21244;DHT22;10780;50.942;4.028;2022-09-17T04:03:28;10.80;99.90
21244;DHT22;10780;50.942;4.028;2022-09-17T04:05:54;10.80;99.90
21244;DHT22;10780;50.942;4.028;2022-09-17T04:08:19;10.90;99.90
21244;DHT22;10780;50.942;4.028;2022-09-17T04:10:46;10.90;99.90
21244;DHT22;10780;50.942;4.028;2022-09-17T04:13:13;10.90;99.90
21244;DHT22;10780;50.942;4.028;2022-09-17T04:15:39;10.90;99.90
21244;DHT22;10780;50.942;4.028;2022-09-17T04:18:05;11.00;99.90
21244;DHT22;10780;50.942;4.028;2022-09-17T04:20:30;11.00;99.90
21244;DHT22;10780;50.942;4.028;2022-09-17T04:22:56;11.00;99.90
21244;DHT22;10780;50.942;4.028;2022-09-17T04:25:22;11.00;99.90
21244;DHT22;10780;50.942;4.028;2022-09-17T04:27:48;11.10;99.90
21244;DHT22;10780;50.942;4.028;2022-09-17T04:30:14;10.90;99.90
21244;DHT22;10780;50.942;4.028;2022-09-17T04:32:40;11.00;99.90
21244;DHT22;10780;50.942;4.028;2022-09-17T04:35:06;11.00;99.90
21244;DHT22;10780;50.942;4.028;2022-09-17T04:37:31;10.90;99.90
21244;DHT22;10780;50.942;4.028;2022-09-17T04:39:58;10.90;99.90
21244;DHT22;10780;50.942;4.028;2022-09-17T04:42:24;10.90;99.90
21244;DHT22;10780;50.942;4.028;2022-09-17T04:44:49;10.80;99.90
21244;DHT22;10780;50.942;4.028;2022-09-17T04:47:15;10.80;99.90
21244;DHT22;10780;50.942;4.028;2022-09-17T04:49:40;10.70;99.90
21244;DHT22;10780;50.942;4.028;2022-09-17T04:52:06;10.80;99.90
21244;DHT22;10780;50.942;4.028;2022-09-17T04:54:31;10.70;99.90
21244;DHT22;10780;50.942;4.028;2022-09-17T04:56:58;10.60;99.90
21244;DHT22;10780;50.942;4.028;2022-09-17T04:59:24;10.60;99.90
21244;DHT22;10780;50.942;4.028;2022-09-17T05:01:49;10.60;99.90
21244;DHT22;10780;50.942;4.028;2022-09-17T05:04:15;10.60;99.90
21244;DHT22;10780;50.942;4.028;2022-09-17T05:06:40;10.60;99.90
21244;DHT22;10780;50.942;4.028;2022-09-17T05:09:06;10.60;99.90
21244;DHT22;10780;50.942;4.028;2022-09-17T05:11:32;10.60;99.90
21244;DHT22;10780;50.942;4.028;2022-09-17T05:13:57;10.70;99.90
21244;DHT22;10780;50.942;4.028;2022-09-17T05:16:23;10.60;99.90
21244;DHT22;10780;50.942;4.028;2022-09-17T05:18:49;10.70;99.90
21244;DHT22;10780;50.942;4.028;2022-09-17T05:21:16;10.60;99.90
21244;DHT22;10780;50.942;4.028;2022-09-17T05:23:42;10.70;99.90
21244;DHT22;10780;50.942;4.028;2022-09-17T05:26:07;10.70;99.90
21244;DHT22;10780;50.942;4.028;2022-09-17T05:28:33;10.70;99.90
21244;DHT22;10780;50.942;4.028;2022-09-17T05:30:59;10.70;99.90
21244;DHT22;10780;50.942;4.028;2022-09-17T05:33:25;10.70;99.90
21244;DHT22;10780;50.942;4.028;2022-09-17T05:35:51;10.80;99.90
21244;DHT22;10780;50.942;4.028;2022-09-17T05:38:17;10.90;99.90
21244;DHT22;10780;50.942;4.028;2022-09-17T05:40:44;10.90;99.90
21244;DHT22;10780;50.942;4.028;2022-09-17T05:43:10;11.00;99.90
21244;DHT22;10780;50.942;4.028;2022-09-17T05:45:36;11.10;99.90
21244;DHT22;10780;50.942;4.028;2022-09-17T05:48:04;11.10;99.90
21244;DHT22;10780;50.942;4.028;2022-09-17T05:50:30;11.20;99.90
21244;DHT22;10780;50.942;4.028;2022-09-17T05:52:56;11.40;99.90
21244;DHT22;10780;50.942;4.028;2022-09-17T05:55:22;11.30;99.90
21244;DHT22;10780;50.942;4.028;2022-09-17T05:57:49;11.30;99.90
21244;DHT22;10780;50.942;4.028;2022-09-17T06:00:15;11.30;99.90
21244;DHT22;10780;50.942;4.028;2022-09-17T06:02:41;11.20;99.90
21244;DHT22;10780;50.942;4.028;2022-09-17T06:05:07;11.30;99.90
21244;DHT22;10780;50.942;4.028;2022-09-17T06:07:36;11.40;99.90
21244;DHT22;10780;50.942;4.028;2022-09-17T06:10:03;11.50;99.90
21244;DHT22;10780;50.942;4.028;2022-09-17T06:12:30;11.70;99.90
21244;DHT22;10780;50.942;4.028;2022-09-17T06:14:55;11.80;99.90
21244;DHT22;10780;50.942;4.028;2022-09-17T06:17:21;11.80;99.90
21244;DHT22;10780;50.942;4.028;2022-09-17T06:19:46;11.90;99.90
21244;DHT22;10780;50.942;4.028;2022-09-17T06:22:12;12.00;99.90
21244;DHT22;10780;50.942;4.028;2022-09-17T06:24:38;12.00;99.90
21244;DHT22;10780;50.942;4.028;2022-09-17T06:27:03;12.00;99.90
21244;DHT22;10780;50.942;4.028;2022-09-17T06:29:29;12.10;99.90
21244;DHT22;10780;50.942;4.028;2022-09-17T06:31:55;12.10;99.90
21244;DHT22;10780;50.942;4.028;2022-09-17T06:34:20;12.10;99.90
21244;DHT22;10780;50.942;4.028;2022-09-17T06:36:47;12.10;99.90
21244;DHT22;10780;50.942;4.028;2022-09-17T06:39:13;12.30;99.90
21244;DHT22;10780;50.942;4.028;2022-09-17T06:41:40;12.50;99.90
21244;DHT22;10780;50.942;4.028;2022-09-17T06:44:07;12.60;99.90
21244;DHT22;10780;50.942;4.028;2022-09-17T06:46:33;12.60;99.90
21244;DHT22;10780;50.942;4.028;2022-09-17T06:48:58;12.70;99.90
21244;DHT22;10780;50.942;4.028;2022-09-17T06:51:24;12.60;99.90
21244;DHT22;10780;50.942;4.028;2022-09-17T06:53:49;12.50;99.90
21244;DHT22;10780;50.942;4.028;2022-09-17T06:56:15;12.50;99.90
21244;DHT22;10780;50.942;4.028;2022-09-17T06:58:42;12.60;99.90
21244;DHT22;10780;50.942;4.028;2022-09-17T07:01:09;12.60;99.90
21244;DHT22;10780;50.942;4.028;2022-09-17T07:03:35;12.50;99.90
21244;DHT22;10780;50.942;4.028;2022-09-17T07:06:01;12.40;99.90
21244;DHT22;10780;50.942;4.028;2022-09-17T07:08:27;12.50;99.90
21244;DHT22;10780;50.942;4.028;2022-09-17T07:10:56;12.50;99.90
21244;DHT22;10780;50.942;4.028;2022-09-17T07:13:23;12.50;99.90
21244;DHT22;10780;50.942;4.028;2022-09-17T07:15:53;12.50;99.90
21244;DHT22;10780;50.942;4.028;2022-09-17T07:18:19;12.60;99.90
21244;DHT22;10780;50.942;4.028;2022-09-17T07:21:02;12.70;99.90
21244;DHT22;10780;50.942;4.028;2022-09-17T07:23:30;12.90;99.90
21244;DHT22;10780;50.942;4.028;2022-09-17T07:25:58;13.00;99.90
21244;DHT22;10780;50.942;4.028;2022-09-17T07:28:25;13.10;99.90
21244;DHT22;10780;50.942;4.028;2022-09-17T07:30:51;13.20;99.90
21244;DHT22;10780;50.942;4.028;2022-09-17T07:33:19;13.30;99.90
21244;DHT22;10780;50.942;4.028;2022-09-17T07:35:57;13.20;99.90
21244;DHT22;10780;50.942;4.028;2022-09-17T07:38:24;13.00;99.90
21244;DHT22;10780;50.942;4.028;2022-09-17T07:40:55;12.80;99.90
21244;DHT22;10780;50.942;4.028;2022-09-17T07:43:22;12.80;99.90
21244;DHT22;10780;50.942;4.028;2022-09-17T07:45:48;12.90;99.90
21244;DHT22;10780;50.942;4.028;2022-09-17T07:48:13;13.20;99.90
21244;DHT22;10780;50.942;4.028;2022-09-17T07:50:39;13.30;99.90
21244;DHT22;10780;50.942;4.028;2022-09-17T07:53:05;13.30;99.90
21244;DHT22;10780;50.942;4.028;2022-09-17T07:55:30;13.40;99.90
21244;DHT22;10780;50.942;4.028;2022-09-17T07:57:56;13.50;99.90
21244;DHT22;10780;50.942;4.028;2022-09-17T08:00:21;13.60;99.90
21244;DHT22;10780;50.942;4.028;2022-09-17T08:02:54;13.80;99.90
21244;DHT22;10780;50.942;4.028;2022-09-17T08:05:20;13.50;99.90
21244;DHT22;10780;50.942;4.028;2022-09-17T08:07:49;13.50;99.90
21244;DHT22;10780;50.942;4.028;2022-09-17T08:10:15;13.40;99.90
21244;DHT22;10780;50.942;4.028;2022-09-17T08:12:41;13.20;99.90
21244;DHT22;10780;50.942;4.028;2022-09-17T08:15:07;13.10;99.90
21244;DHT22;10780;50.942;4.028;2022-09-17T08:17:32;13.10;99.90
21244;DHT22;10780;50.942;4.028;2022-09-17T08:19:58;13.30;99.90
21244;DHT22;10780;50.942;4.028;2022-09-17T08:22:23;13.40;99.90
21244;DHT22;10780;50.942;4.028;2022-09-17T08:24:49;13.40;99.90
21244;DHT22;10780;50.942;4.028;2022-09-17T08:27:14;13.50;99.90
21244;DHT22;10780;50.942;4.028;2022-09-17T08:29:40;13.50;99.90
21244;DHT22;10780;50.942;4.028;2022-09-17T08:32:06;13.50;99.90
21244;DHT22;10780;50.942;4.028;2022-09-17T08:34:31;13.30;99.90
21244;DHT22;10780;50.942;4.028;2022-09-17T08:36:57;13.30;99.90
21244;DHT22;10780;50.942;4.028;2022-09-17T08:39:22;13.10;99.90
21244;DHT22;10780;50.942;4.028;2022-09-17T08:42:10;13.00;99.90
21244;DHT22;10780;50.942;4.028;2022-09-17T08:44:40;12.80;99.90
21244;DHT22;10780;50.942;4.028;2022-09-17T08:47:29;12.80;99.90
21244;DHT22;10780;50.942;4.028;2022-09-17T08:49:59;12.70;99.90
21244;DHT22;10780;50.942;4.028;2022-09-17T08:55:29;12.80;99.90
21244;DHT22;10780;50.942;4.028;2022-09-17T08:58:23;13.10;99.90
21244;DHT22;10780;50.942;4.028;2022-09-17T09:01:04;13.40;99.90
21244;DHT22;10780;50.942;4.028;2022-09-17T09:06:30;13.90;99.90
21244;DHT22;10780;50.942;4.028;2022-09-17T09:09:09;13.70;99.90
21244;DHT22;10780;50.942;4.028;2022-09-17T09:11:36;13.60;99.90
21244;DHT22;10780;50.942;4.028;2022-09-17T09:14:30;13.60;99.90
21244;DHT22;10780;50.942;4.028;2022-09-17T09:16:57;13.50;99.90
21244;DHT22;10780;50.942;4.028;2022-09-17T09:19:26;13.40;99.90
21244;DHT22;10780;50.942;4.028;2022-09-17T09:22:35;13.40;99.90
21244;DHT22;10780;50.942;4.028;2022-09-17T09:25:22;13.20;99.90
21244;DHT22;10780;50.942;4.028;2022-09-17T09:33:34;13.50;99.90
21244;DHT22;10780;50.942;4.028;2022-09-17T09:36:01;13.60;99.90
21244;DHT22;10780;50.942;4.028;2022-09-17T09:38:39;13.70;99.90
21244;DHT22;10780;50.942;4.028;2022-09-17T09:41:11;13.70;99.90
21244;DHT22;10780;50.942;4.028;2022-09-17T09:43:45;13.80;99.90
21244;DHT22;10780;50.942;4.028;2022-09-17T09:49:41;14.00;99.90
21244;DHT22;10780;50.942;4.028;2022-09-17T09:57:58;13.40;99.90
21244;DHT22;10780;50.942;4.028;2022-09-17T10:00:41;13.10;99.90
21244;DHT22;10780;50.942;4.028;2022-09-17T10:03:15;12.80;99.90
21244;DHT22;10780;50.942;4.028;2022-09-17T10:08:17;12.40;99.90
21244;DHT22;10780;50.942;4.028;2022-09-17T10:11:03;12.20;99.90
21244;DHT22;10780;50.942;4.028;2022-09-17T10:13:34;12.10;99.90
21244;DHT22;10780;50.942;4.028;2022-09-17T10:16:24;12.10;99.90
21244;DHT22;10780;50.942;4.028;2022-09-17T10:19:19;12.20;99.90
21244;DHT22;10780;50.942;4.028;2022-09-17T10:21:49;12.20;99.90
21244;DHT22;10780;50.942;4.028;2022-09-17T10:24:31;12.10;99.90
21244;DHT22;10780;50.942;4.028;2022-09-17T10:27:06;12.00;99.90
21244;DHT22;10780;50.942;4.028;2022-09-17T10:29:41;12.00;99.90
21244;DHT22;10780;50.942;4.028;2022-09-17T10:32:14;11.90;99.90
21244;DHT22;10780;50.942;4.028;2022-09-17T10:34:40;11.80;99.90
21244;DHT22;10780;50.942;4.028;2022-09-17T10:37:46;12.00;99.90
21244;DHT22;10780;50.942;4.028;2022-09-17T10:40:32;12.10;99.90
21244;DHT22;10780;50.942;4.028;2022-09-17T10:43:27;12.20;99.90
21244;DHT22;10780;50.942;4.028;2022-09-17T10:45:57;12.30;99.90
21244;DHT22;10780;50.942;4.028;2022-09-17T10:48:26;12.40;99.90
21244;DHT22;10780;50.942;4.028;2022-09-17T10:50:54;12.60;99.90
21244;DHT22;10780;50.942;4.028;2022-09-17T10:53:21;12.80;99.90
21244;DHT22;10780;50.942;4.028;2022-09-17T10:56:16;13.20;99.90
21244;DHT22;10780;50.942;4.028;2022-09-17T11:05:01;13.80;99.90
21244;DHT22;10780;50.942;4.028;2022-09-17T11:07:32;13.70;99.90
21244;DHT22;10780;50.942;4.028;2022-09-17T11:18:18;13.70;99.90
21244;DHT22;10780;50.942;4.028;2022-09-17T11:20:56;13.90;99.90
21244;DHT22;10780;50.942;4.028;2022-09-17T11:26:35;13.30;99.90
21244;DHT22;10780;50.942;4.028;2022-09-17T11:35:04;12.50;99.90
21244;DHT22;10780;50.942;4.028;2022-09-17T11:37:39;12.50;99.90
21244;DHT22;10780;50.942;4.028;2022-09-17T11:40:14;12.30;99.90
21244;DHT22;10780;50.942;4.028;2022-09-17T11:42:55;12.50;99.90
21244;DHT22;10780;50.942;4.028;2022-09-17T11:45:28;12.90;99.90
21244;DHT22;10780;50.942;4.028;2022-09-17T11:48:11;13.20;99.90
21244;DHT22;10780;50.942;4.028;2022-09-17T11:50:57;13.30;99.90
21244;DHT22;10780;50.942;4.028;2022-09-17T11:53:33;13.30;99.90
21244;DHT22;10780;50.942;4.028;2022-09-17T11:56:24;13.10;99.90
21244;DHT22;10780;50.942;4.028;2022-09-17T11:58:59;13.10;99.90
21244;DHT22;10780;50.942;4.028;2022-09-17T12:01:42;13.20;99.90
21244;DHT22;10780;50.942;4.028;2022-09-17T12:04:39;13.30;99.90
21244;DHT22;10780;50.942;4.028;2022-09-17T12:07:44;13.40;99.90
21244;DHT22;10780;50.942;4.028;2022-09-17T12:15:54;14.40;99.90
21244;DHT22;10780;50.942;4.028;2022-09-17T12:21:08;15.30;99.90
21244;DHT22;10780;50.942;4.028;2022-09-17T12:26:15;15.40;99.90
21244;DHT22;10780;50.942;4.028;2022-09-17T12:29:02;15.40;99.90
21244;DHT22;10780;50.942;4.028;2022-09-17T12:31:36;15.20;99.90
21244;DHT22;10780;50.942;4.028;2022-09-17T12:37:16;15.40;99.90
21244;DHT22;10780;50.942;4.028;2022-09-17T12:45:45;15.60;99.90
21244;DHT22;10780;50.942;4.028;2022-09-17T12:48:25;15.60;99.90
21244;DHT22;10780;50.942;4.028;2022-09-17T12:53:55;15.60;99.90
21244;DHT22;10780;50.942;4.028;2022-09-17T12:56:38;15.70;99.90
21244;DHT22;10780;50.942;4.028;2022-09-17T12:59:09;15.80;99.90
21244;DHT22;10780;50.942;4.028;2022-09-17T13:10:07;16.40;99.90
21244;DHT22;10780;50.942;4.028;2022-09-17T13:12:57;16.60;99.90
21244;DHT22;10780;50.942;4.028;2022-09-17T13:15:45;16.10;99.90
21244;DHT22;10780;50.942;4.028;2022-09-17T13:18:30;15.60;99.90
21244;DHT22;10780;50.942;4.028;2022-09-17T13:21:05;15.30;99.90
21244;DHT22;10780;50.942;4.028;2022-09-17T13:26:01;14.00;99.90
21244;DHT22;10780;50.942;4.028;2022-09-17T13:28:44;13.60;99.90
21244;DHT22;10780;50.942;4.028;2022-09-17T13:31:10;13.40;99.90
21244;DHT22;10780;50.942;4.028;2022-09-17T13:36:58;13.20;99.90
21244;DHT22;10780;50.942;4.028;2022-09-17T13:39:45;13.30;99.90
21244;DHT22;10780;50.942;4.028;2022-09-17T13:42:21;13.40;99.90
21244;DHT22;10780;50.942;4.028;2022-09-17T13:45:00;13.60;99.90
21244;DHT22;10780;50.942;4.028;2022-09-17T13:47:39;13.60;99.90
21244;DHT22;10780;50.942;4.028;2022-09-17T13:52:57;14.00;99.90
21244;DHT22;10780;50.942;4.028;2022-09-17T13:57:58;14.10;99.90
21244;DHT22;10780;50.942;4.028;2022-09-17T14:11:21;13.70;99.90
21244;DHT22;10780;50.942;4.028;2022-09-17T14:19:33;14.40;99.90
21244;DHT22;10780;50.942;4.028;2022-09-17T14:28:01;13.70;99.90
21244;DHT22;10780;50.942;4.028;2022-09-17T14:30:20;13.30;99.90
21244;DHT22;10780;50.942;4.028;2022-09-17T14:38:15;12.90;99.90
21244;DHT22;10780;50.942;4.028;2022-09-17T14:41:06;12.80;99.90
21244;DHT22;10780;50.942;4.028;2022-09-17T14:43:57;13.10;99.90
21244;DHT22;10780;50.942;4.028;2022-09-17T14:46:36;13.40;99.90
21244;DHT22;10780;50.942;4.028;2022-09-17T14:49:25;13.50;99.90
21244;DHT22;10780;50.942;4.028;2022-09-17T14:51:52;13.60;99.90
21244;DHT22;10780;50.942;4.028;2022-09-17T14:54:26;13.50;99.90
21244;DHT22;10780;50.942;4.028;2022-09-17T15:01:54;13.20;99.90
21244;DHT22;10780;50.942;4.028;2022-09-17T15:04:23;13.30;99.90
21244;DHT22;10780;50.942;4.028;2022-09-17T15:06:49;13.60;99.90
21244;DHT22;10780;50.942;4.028;2022-09-17T15:09:25;13.70;99.90
21244;DHT22;10780;50.942;4.028;2022-09-17T15:11:53;13.60;99.90
21244;DHT22;10780;50.942;4.028;2022-09-17T15:14:22;13.40;99.90
21244;DHT22;10780;50.942;4.028;2022-09-17T15:16:54;13.10;99.90
21244;DHT22;10780;50.942;4.028;2022-09-17T15:19:32;12.90;99.90
21244;DHT22;10780;50.942;4.028;2022-09-17T15:22:07;12.80;99.90
21244;DHT22;10780;50.942;4.028;2022-09-17T15:24:56;12.90;99.90
21244;DHT22;10780;50.942;4.028;2022-09-17T15:27:37;12.90;99.90
21244;DHT22;10780;50.942;4.028;2022-09-17T15:32:30;13.00;99.90
21244;DHT22;10780;50.942;4.028;2022-09-17T15:37:44;13.20;99.90
21244;DHT22;10780;50.942;4.028;2022-09-17T15:40:23;13.20;99.90
21244;DHT22;10780;50.942;4.028;2022-09-17T15:42:51;13.20;99.90
21244;DHT22;10780;50.942;4.028;2022-09-17T15:45:18;13.10;99.90
21244;DHT22;10780;50.942;4.028;2022-09-17T15:47:51;13.20;99.90
21244;DHT22;10780;50.942;4.028;2022-09-17T15:53:10;13.10;99.90
21244;DHT22;10780;50.942;4.028;2022-09-17T15:58:30;13.10;99.90
21244;DHT22;10780;50.942;4.028;2022-09-17T16:08:48;13.30;99.90
21244;DHT22;10780;50.942;4.028;2022-09-17T16:11:15;13.30;99.90
21244;DHT22;10780;50.942;4.028;2022-09-17T16:13:41;13.20;99.90
21244;DHT22;10780;50.942;4.028;2022-09-17T16:16:11;13.20;99.90
21244;DHT22;10780;50.942;4.028;2022-09-17T16:18:38;13.20;99.90
21244;DHT22;10780;50.942;4.028;2022-09-17T16:21:04;13.30;99.90
21244;DHT22;10780;50.942;4.028;2022-09-17T16:23:29;13.30;99.90
21244;DHT22;10780;50.942;4.028;2022-09-17T16:25:56;13.20;99.90
21244;DHT22;10780;50.942;4.028;2022-09-17T16:28:22;13.10;99.90
21244;DHT22;10780;50.942;4.028;2022-09-17T16:30:48;13.10;99.90
21244;DHT22;10780;50.942;4.028;2022-09-17T16:33:16;13.10;99.90
21244;DHT22;10780;50.942;4.028;2022-09-17T16:35:42;13.10;99.90
21244;DHT22;10780;50.942;4.028;2022-09-17T16:38:09;13.20;99.90
21244;DHT22;10780;50.942;4.028;2022-09-17T16:40:43;13.20;99.90
21244;DHT22;10780;50.942;4.028;2022-09-17T16:43:09;13.30;99.90
21244;DHT22;10780;50.942;4.028;2022-09-17T16:45:35;13.50;99.90
21244;DHT22;10780;50.942;4.028;2022-09-17T16:48:01;13.60;99.90
21244;DHT22;10780;50.942;4.028;2022-09-17T16:50:28;13.60;99.90
21244;DHT22;10780;50.942;4.028;2022-09-17T16:52:53;13.50;99.90
21244;DHT22;10780;50.942;4.028;2022-09-17T16:55:20;13.30;99.90
21244;DHT22;10780;50.942;4.028;2022-09-17T16:57:46;13.10;99.90
21244;DHT22;10780;50.942;4.028;2022-09-17T17:00:14;13.10;99.90
21244;DHT22;10780;50.942;4.028;2022-09-17T17:02:42;13.00;99.90
21244;DHT22;10780;50.942;4.028;2022-09-17T17:05:08;12.90;99.90
21244;DHT22;10780;50.942;4.028;2022-09-17T17:07:35;12.70;99.90
21244;DHT22;10780;50.942;4.028;2022-09-17T17:10:02;12.60;99.90
21244;DHT22;10780;50.942;4.028;2022-09-17T17:12:28;12.60;99.90
21244;DHT22;10780;50.942;4.028;2022-09-17T17:14:55;12.60;99.90
21244;DHT22;10780;50.942;4.028;2022-09-17T17:17:20;12.60;99.90
21244;DHT22;10780;50.942;4.028;2022-09-17T17:19:46;12.60;99.90
21244;DHT22;10780;50.942;4.028;2022-09-17T17:22:13;12.70;99.90
21244;DHT22;10780;50.942;4.028;2022-09-17T17:24:38;12.70;99.90
21244;DHT22;10780;50.942;4.028;2022-09-17T17:27:04;12.60;99.90
21244;DHT22;10780;50.942;4.028;2022-09-17T17:29:30;12.50;99.90
21244;DHT22;10780;50.942;4.028;2022-09-17T17:31:55;12.50;99.90
21244;DHT22;10780;50.942;4.028;2022-09-17T17:34:21;12.40;99.90
21244;DHT22;10780;50.942;4.028;2022-09-17T17:36:48;12.40;99.90
21244;DHT22;10780;50.942;4.028;2022-09-17T17:39:14;12.40;99.90
21244;DHT22;10780;50.942;4.028;2022-09-17T17:41:39;12.40;99.90
21244;DHT22;10780;50.942;4.028;2022-09-17T17:44:05;12.40;99.90
21244;DHT22;10780;50.942;4.028;2022-09-17T17:46:31;12.50;99.90
21244;DHT22;10780;50.942;4.028;2022-09-17T17:48:57;12.50;99.90
21244;DHT22;10780;50.942;4.028;2022-09-17T17:51:22;12.40;99.90
21244;DHT22;10780;50.942;4.028;2022-09-17T17:53:49;12.50;99.90
21244;DHT22;10780;50.942;4.028;2022-09-17T17:56:15;12.60;99.90
21244;DHT22;10780;50.942;4.028;2022-09-17T17:58:41;12.70;99.90
21244;DHT22;10780;50.942;4.028;2022-09-17T18:01:15;12.60;99.90
21244;DHT22;10780;50.942;4.028;2022-09-17T18:03:41;12.50;99.90
21244;DHT22;10780;50.942;4.028;2022-09-17T18:06:07;12.40;99.90
21244;DHT22;10780;50.942;4.028;2022-09-17T18:08:37;12.40;99.90
21244;DHT22;10780;50.942;4.028;2022-09-17T18:11:04;12.40;99.90
21244;DHT22;10780;50.942;4.028;2022-09-17T18:13:33;12.40;99.90
21244;DHT22;10780;50.942;4.028;2022-09-17T18:16:00;12.40;99.90
21244;DHT22;10780;50.942;4.028;2022-09-17T18:18:33;12.30;99.90
21244;DHT22;10780;50.942;4.028;2022-09-17T18:21:01;12.30;99.90
21244;DHT22;10780;50.942;4.028;2022-09-17T18:23:28;12.30;99.90
21244;DHT22;10780;50.942;4.028;2022-09-17T18:25:55;12.30;99.90
21244;DHT22;10780;50.942;4.028;2022-09-17T18:28:21;12.30;99.90
21244;DHT22;10780;50.942;4.028;2022-09-17T18:30:48;12.30;99.90
21244;DHT22;10780;50.942;4.028;2022-09-17T18:33:23;12.40;99.90
21244;DHT22;10780;50.942;4.028;2022-09-17T18:35:53;12.40;99.90
21244;DHT22;10780;50.942;4.028;2022-09-17T18:38:22;12.50;99.90
21244;DHT22;10780;50.942;4.028;2022-09-17T18:40:48;12.60;99.90
21244;DHT22;10780;50.942;4.028;2022-09-17T18:43:14;12.50;99.90
21244;DHT22;10780;50.942;4.028;2022-09-17T18:45:39;12.60;99.90
21244;DHT22;10780;50.942;4.028;2022-09-17T18:48:06;12.50;99.90